createdAt,value
2022-07-27T00:00:19.323Z,59.00390625
2022-07-27T00:01:21.997Z,59.1015625
2022-07-27T00:02:16.328Z,59.61230469
2022-07-27T00:03:16.720Z,59.80761719
2022-07-27T00:04:15.375Z,60.2265625
2022-07-27T00:05:18.762Z,60.48242188
2022-07-27T00:06:15.605Z,59.87695313
2022-07-27T00:07:18.524Z,60.59667969
2022-07-27T00:08:18.685Z,61.37304688
2022-07-27T00:09:24.107Z,61.5859375
2022-07-27T00:10:18.312Z,61.30175781
2022-07-27T00:11:21.085Z,61.80273438
2022-07-27T00:12:48.701Z,61.82128906
2022-07-27T00:13:29.491Z,61.89941406
2022-07-27T00:14:26.965Z,61.21679688
2022-07-27T00:16:43.749Z,61.5546875
2022-07-27T00:17:40.924Z,61.7890625
2022-07-27T00:18:43.778Z,61.87988281
2022-07-27T00:19:39.547Z,60.79101563
2022-07-27T00:20:41.258Z,60.63574219
2022-07-27T00:21:46.358Z,61.51074219
2022-07-27T00:22:42.996Z,60.73144531
2022-07-27T00:23:38.385Z,60.37792969
2022-07-27T00:24:40.984Z,61.0625
2022-07-27T00:25:36.238Z,60.95410156
2022-07-27T00:26:42.221Z,60.7421875
2022-07-27T00:27:43.488Z,60.6015625
2022-07-27T00:28:43.510Z,60.48535156
2022-07-27T00:29:40.216Z,60.82617188
2022-07-27T00:30:43.538Z,60.34960938
2022-07-27T00:31:39.929Z,60.95019531
2022-07-27T00:32:40.170Z,60.92480469
2022-07-27T00:33:36.310Z,59.56445313
2022-07-27T00:34:39.866Z,59.70019531
2022-07-27T00:36:41.752Z,60.27050781
2022-07-27T00:37:34.311Z,61.41015625
2022-07-27T00:38:38.496Z,61.95703125
2022-07-27T00:39:31.561Z,61.51171875
2022-07-27T00:40:37.538Z,61.9296875
2022-07-27T00:41:35.464Z,61.55957031
2022-07-27T00:42:41.395Z,61.85449219
2022-07-27T00:43:35.862Z,62.26464844
2022-07-27T00:44:38.949Z,62.04589844
2022-07-27T00:45:33.128Z,61.22753906
2022-07-27T00:46:36.712Z,61.82910156
2022-07-27T00:47:42.503Z,61.70507813
2022-07-27T00:48:46.068Z,62.01074219
2022-07-27T00:49:38.744Z,62.3515625
2022-07-27T00:51:38.822Z,62.17089844
2022-07-27T00:52:40.706Z,61.91894531
2022-07-27T00:53:39.707Z,61.48535156
2022-07-27T00:54:38.832Z,61.87109375
2022-07-27T00:56:39.000Z,61.79003906
2022-07-27T00:58:03.208Z,62.29785156
2022-07-27T00:58:44.071Z,63.0078125
2022-07-27T00:59:47.365Z,61.82421875
2022-07-27T01:00:48.152Z,61.80664063
2022-07-27T01:01:44.549Z,61.953125
2022-07-27T01:02:47.244Z,62.55859375
2022-07-27T01:03:40.563Z,62.80859375
2022-07-27T01:04:40.432Z,62.34082031
2022-07-27T01:06:43.038Z,61.90527344
2022-07-27T01:07:38.681Z,61.85449219
2022-07-27T01:08:39.388Z,62.10449219
2022-07-27T01:09:34.646Z,62.01171875
2022-07-27T01:10:38.847Z,62.25390625
2022-07-27T01:11:34.378Z,62.19335938
2022-07-27T01:12:34.644Z,62.70410156
2022-07-27T01:13:30.105Z,62.69042969
2022-07-27T01:14:30.131Z,62.75488281
2022-07-27T01:16:33.980Z,62.99511719
2022-07-27T01:17:30.289Z,63.30273438
2022-07-27T01:18:33.668Z,62.85839844
2022-07-27T01:19:27.612Z,63.53125
2022-07-27T01:20:27.097Z,63.31933594
2022-07-27T01:21:25.220Z,63.78515625
2022-07-27T01:21:32.125Z,63.78515625
2022-07-27T01:22:29.684Z,63.85351563
2022-07-27T01:23:29.660Z,63.60644531
2022-07-27T01:24:29.281Z,63.99414063
2022-07-27T01:26:26.286Z,63.95996094
2022-07-27T01:27:28.171Z,63.65527344
2022-07-27T01:28:34.648Z,63.80371094
2022-07-27T01:29:28.828Z,63.515625
2022-07-27T01:30:27.955Z,63.54296875
2022-07-27T01:31:26.464Z,63.29785156
2022-07-27T01:32:26.728Z,63.69335938
2022-07-27T01:34:12.955Z,63.36035156
2022-07-27T01:34:57.415Z,63.25585938
2022-07-27T01:35:55.440Z,63.14746094
2022-07-27T01:36:54.947Z,62.58398438
2022-07-27T01:37:53.960Z,63.47070313
2022-07-27T01:39:00.076Z,63.31933594
2022-07-27T01:39:56.513Z,63.42382813
2022-07-27T01:41:01.718Z,62.28222656
2022-07-27T01:41:59.783Z,62.68652344
2022-07-27T01:42:59.445Z,63.48046875
2022-07-27T01:43:57.764Z,63.58105469
2022-07-27T01:44:57.378Z,63.17089844
2022-07-27T01:46:58.000Z,62.32324219
2022-07-27T01:47:58.990Z,62.58300781
2022-07-27T01:48:54.330Z,63.37792969
2022-07-27T01:49:56.065Z,63.10546875
2022-07-27T01:51:57.286Z,63.67578125
2022-07-27T01:52:49.972Z,62.73144531
2022-07-27T01:53:49.646Z,63.64355469
2022-07-27T01:54:44.333Z,63.82617188
2022-07-27T01:55:51.454Z,63.26953125
2022-07-27T01:56:46.788Z,63.21777344
2022-07-27T01:57:47.037Z,62.91113281
2022-07-27T01:58:43.254Z,62.8203125
2022-07-27T01:59:47.113Z,63.390625
2022-07-27T02:01:50.762Z,63.79980469
2022-07-27T02:02:43.793Z,63.8515625
2022-07-27T02:03:47.548Z,64.11230469
2022-07-27T02:04:39.653Z,64.1015625
2022-07-27T02:05:41.924Z,64.14160156
2022-07-27T02:07:08.872Z,64.01660156
2022-07-27T02:07:50.197Z,63.99511719
2022-07-27T02:08:47.863Z,63.74609375
2022-07-27T02:09:47.016Z,64.01074219
2022-07-27T02:10:51.304Z,64.21386719
2022-07-27T02:11:49.353Z,63.52050781
2022-07-27T02:12:49.159Z,63.80371094
2022-07-27T02:13:49.020Z,63.65234375
2022-07-27T02:14:45.488Z,63.59277344
2022-07-27T02:15:48.298Z,63.421875
2022-07-27T02:16:41.939Z,63.5546875
2022-07-27T02:17:41.833Z,63.88574219
2022-07-27T02:18:44.652Z,64.02832031
2022-07-27T02:19:45.540Z,64.06445313
2022-07-27T02:21:50.030Z,64.01953125
2022-07-27T02:22:43.283Z,64.12011719
2022-07-27T02:23:42.875Z,64.015625
2022-07-27T02:24:39.096Z,63.33203125
2022-07-27T02:26:49.567Z,64.44238281
2022-07-27T02:27:49.492Z,64.3828125
2022-07-27T02:28:47.511Z,64.34472656
2022-07-27T02:29:53.787Z,64.33300781
2022-07-27T02:30:46.462Z,64.10839844
2022-07-27T02:31:49.001Z,64.16210938
2022-07-27T02:32:44.168Z,64.02148438
2022-07-27T02:33:43.234Z,64.21386719
2022-07-27T02:34:38.591Z,64.28125
2022-07-27T02:36:42.302Z,64.35742188
2022-07-27T02:37:37.802Z,64.8203125
2022-07-27T02:38:42.591Z,64.48730469
2022-07-27T02:39:35.099Z,64.63183594
2022-07-27T02:40:43.118Z,64.49121094
2022-07-27T02:41:42.088Z,64.82519531
2022-07-27T02:42:43.785Z,65.18554688
2022-07-27T02:44:24.512Z,65.38769531
2022-07-27T02:46:00.256Z,64.42578125
2022-07-27T02:48:21.476Z,62.33789063
2022-07-27T02:49:00.882Z,61.77050781
2022-07-27T02:50:00.106Z,62.08496094
2022-07-27T02:52:01.851Z,62.94433594
2022-07-27T02:52:59.870Z,62.77050781
2022-07-27T02:53:55.507Z,63.36328125
2022-07-27T02:54:54.721Z,63.16699219
2022-07-27T02:55:50.636Z,63.69824219
2022-07-27T02:56:49.050Z,63.32128906
2022-07-27T02:57:43.212Z,63.56445313
2022-07-27T02:58:47.662Z,63.875
2022-07-27T02:59:42.299Z,64.08398438
2022-07-27T03:01:41.618Z,64.33300781
2022-07-27T03:02:40.966Z,64.16699219
2022-07-27T03:03:37.038Z,64.60546875
2022-07-27T03:04:32.883Z,65.30761719
2022-07-27T03:06:26.116Z,64.42675781
2022-07-27T03:07:22.300Z,64.29785156
2022-07-27T03:08:21.717Z,64.42773438
2022-07-27T03:09:16.977Z,64.43652344
2022-07-27T03:10:19.478Z,64.37109375
2022-07-27T03:11:11.989Z,64.35253906
2022-07-27T03:12:14.390Z,64.640625
2022-07-27T03:13:09.132Z,64.875
2022-07-27T03:14:06.990Z,64.99609375
2022-07-27T03:15:04.228Z,64.91894531
2022-07-27T03:16:04.119Z,64.7421875
2022-07-27T03:16:58.162Z,65.453125
2022-07-27T03:17:53.554Z,65.57421875
2022-07-27T03:18:57.282Z,65.45410156
2022-07-27T03:19:53.827Z,65.88378906
2022-07-27T03:20:49.691Z,66.05859375
2022-07-27T03:22:13.852Z,65.98632813
2022-07-27T03:22:54.627Z,66.62304688
2022-07-27T03:23:52.633Z,66.4765625
2022-07-27T03:24:53.367Z,66.15917969
2022-07-27T03:26:51.810Z,66.09960938
2022-07-27T03:27:48.930Z,66.390625
2022-07-27T03:28:51.583Z,66.19433594
2022-07-27T03:29:46.792Z,66.34960938
2022-07-27T03:30:48.681Z,66.25878906
2022-07-27T03:31:44.437Z,66.20898438
2022-07-27T03:32:44.271Z,66.328125
2022-07-27T03:33:40.009Z,66.29296875
2022-07-27T03:34:44.829Z,66.39160156
2022-07-27T03:36:43.282Z,66.97949219
2022-07-27T03:37:50.522Z,67.11523438
2022-07-27T03:38:45.242Z,66.56640625
2022-07-27T03:39:44.430Z,66.74804688
2022-07-27T03:41:55.070Z,67.03417969
2022-07-27T03:42:53.645Z,67.07421875
2022-07-27T03:43:53.377Z,67.25195313
2022-07-27T03:44:54.964Z,67.19726563
2022-07-27T03:46:55.149Z,67.40234375
2022-07-27T03:47:57.348Z,67.20214844
2022-07-27T03:48:55.926Z,67.58691406
2022-07-27T03:49:58.168Z,67.24707031
2022-07-27T03:51:56.704Z,67.65234375
2022-07-27T03:53:31.000Z,67.25390625
2022-07-27T03:55:54.112Z,64.65820313
2022-07-27T03:56:34.921Z,64.47558594
2022-07-27T03:57:31.383Z,64.50683594
2022-07-27T03:58:29.760Z,64.74609375
2022-07-27T03:59:26.429Z,65.31445313
2022-07-27T04:01:26.062Z,65.67480469
2022-07-27T04:02:24.674Z,65.92578125
2022-07-27T04:03:03.874Z,65.80664063
2022-07-27T04:04:01.390Z,66.19628906
2022-07-27T04:05:01.557Z,66.125
2022-07-27T04:07:01.327Z,66.72753906
2022-07-27T04:08:02.680Z,66.86523438
2022-07-27T04:09:08.325Z,67.27050781
2022-07-27T04:09:08.364Z,67.27050781
2022-07-27T04:10:02.139Z,67.36328125
2022-07-27T04:11:00.873Z,67.01367188
2022-07-27T04:11:55.649Z,67.28320313
2022-07-27T04:12:56.453Z,67.52050781
2022-07-27T04:13:50.761Z,67.6328125
2022-07-27T04:14:50.640Z,67.46289063
2022-07-27T04:15:46.035Z,67.60058594
2022-07-27T04:16:48.149Z,67.9375
2022-07-27T04:17:54.464Z,67.96875
2022-07-27T04:17:54.678Z,67.96875
2022-07-27T04:17:57.612Z,67.96875
2022-07-27T04:18:45.307Z,67.33496094
2022-07-27T04:19:39.845Z,67.52050781
2022-07-27T04:20:39.906Z,67.87695313
2022-07-27T04:21:35.249Z,67.91894531
2022-07-27T04:22:37.353Z,67.62011719
2022-07-27T04:23:37.945Z,67.87890625
2022-07-27T04:24:28.662Z,68.15332031
2022-07-27T04:25:27.243Z,68.12695313
2022-07-27T04:26:30.748Z,67.78222656
2022-07-27T04:27:21.982Z,67.64550781
2022-07-27T04:28:19.723Z,67.79394531
2022-07-27T04:29:19.939Z,67.88476563
2022-07-27T04:29:20.973Z,67.88476563
2022-07-27T04:31:11.179Z,67.75390625
2022-07-27T04:32:05.445Z,67.36621094
2022-07-27T04:33:02.737Z,67.95605469
2022-07-27T04:33:56.011Z,67.68164063
2022-07-27T04:34:54.180Z,67.80761719
2022-07-27T04:35:48.497Z,67.60644531
2022-07-27T04:36:47.984Z,67.87597656
2022-07-27T04:37:57.856Z,67.95703125
2022-07-27T04:37:58.606Z,67.95703125
2022-07-27T04:37:59.193Z,67.95703125
2022-07-27T04:38:44.191Z,67.78808594
2022-07-27T04:39:42.338Z,67.81933594
2022-07-27T04:40:38.683Z,67.40625
2022-07-27T04:41:37.427Z,67.60742188
2022-07-27T04:42:30.835Z,67.24316406
2022-07-27T04:43:35.160Z,67.84277344
2022-07-27T04:44:26.384Z,68.10449219
2022-07-27T04:46:49.117Z,67.91992188
2022-07-27T04:47:28.620Z,67.47851563
2022-07-27T04:48:26.810Z,67.42480469
2022-07-27T04:49:30.820Z,68.0078125
2022-07-27T04:51:34.539Z,67.81445313
2022-07-27T04:52:27.694Z,68.05175781
2022-07-27T04:53:26.162Z,68.29492188
2022-07-27T04:54:21.805Z,68.04394531
2022-07-27T04:55:27.691Z,68.06152344
2022-07-27T04:56:24.114Z,67.99121094
2022-07-27T04:57:23.883Z,67.98046875
2022-07-27T04:58:20.367Z,66.91113281
2022-07-27T04:59:20.434Z,66.99804688
2022-07-27T05:00:16.876Z,67.63183594
2022-07-27T05:01:19.432Z,68.07421875
2022-07-27T05:02:12.088Z,68.01855469
2022-07-27T05:03:14.569Z,68.07519531
2022-07-27T05:04:07.281Z,67.625
2022-07-27T05:05:10.318Z,67.57226563
2022-07-27T05:07:05.430Z,66.97070313
2022-07-27T05:07:59.656Z,67.4609375
2022-07-27T05:09:01.914Z,67.70214844
2022-07-27T05:09:56.239Z,66.96679688
2022-07-27T05:10:58.356Z,67.04199219
2022-07-27T05:11:52.674Z,67.80761719
2022-07-27T05:12:52.565Z,65.99804688
2022-07-27T05:13:48.232Z,65.83007813
2022-07-27T05:14:48.481Z,65.45996094
2022-07-27T05:15:54.951Z,65.1640625
2022-07-27T05:15:55.008Z,65.1640625
2022-07-27T05:16:47.046Z,64.91210938
2022-07-27T05:17:42.783Z,65.41699219
2022-07-27T05:18:45.722Z,65.45410156
2022-07-27T05:19:40.536Z,65.19335938
2022-07-27T05:20:40.298Z,65.16699219
2022-07-27T05:21:35.525Z,65.88476563
2022-07-27T05:22:40.041Z,65.73632813
2022-07-27T05:23:31.527Z,65.69335938
2022-07-27T05:24:34.753Z,64.64355469
2022-07-27T05:26:28.594Z,64.50976563
2022-07-27T05:27:24.214Z,64.68847656
2022-07-27T05:28:24.886Z,63.88476563
2022-07-27T05:30:07.859Z,64.37402344
2022-07-27T05:30:47.727Z,64.56640625
2022-07-27T05:31:47.635Z,63.71972656
2022-07-27T05:32:42.281Z,64.24609375
2022-07-27T05:33:42.063Z,64.02636719
2022-07-27T05:33:49.135Z,64.02636719
2022-07-27T05:33:54.661Z,64.02636719
2022-07-27T05:34:43.304Z,64.17578125
2022-07-27T05:35:39.199Z,64.35449219
2022-07-27T05:36:38.340Z,63.92480469
2022-07-27T05:37:33.555Z,63.55273438
2022-07-27T05:38:36.202Z,63.69824219
2022-07-27T05:39:28.767Z,63.86914063
2022-07-27T05:40:29.029Z,64.453125
2022-07-27T05:41:23.821Z,64.8203125
2022-07-27T05:42:23.254Z,64.83300781
2022-07-27T05:43:18.611Z,64.43164063
2022-07-27T05:44:21.859Z,64.13769531
2022-07-27T05:45:14.288Z,63.3515625
2022-07-27T05:46:13.822Z,63.78417969
2022-07-27T05:47:11.469Z,64.46777344
2022-07-27T05:48:08.445Z,64.3671875
2022-07-27T05:49:03.605Z,64.6796875
2022-07-27T05:50:00.133Z,64.11425781
2022-07-27T05:51:55.057Z,64.11816406
2022-07-27T05:52:57.228Z,64.20996094
2022-07-27T05:53:49.691Z,64.11328125
2022-07-27T05:54:49.245Z,63.70605469
2022-07-27T05:56:42.376Z,64.9140625
2022-07-27T05:57:45.075Z,63.65820313
2022-07-27T05:58:37.683Z,62.95410156
2022-07-27T05:59:39.958Z,63.42578125
2022-07-27T06:01:33.681Z,64.06738281
2022-07-27T06:02:28.444Z,63.53222656
2022-07-27T06:03:29.523Z,62.18945313
2022-07-27T06:04:24.655Z,62.26953125
2022-07-27T06:06:11.290Z,61.86230469
2022-07-27T06:06:53.406Z,62.25976563
2022-07-27T06:07:51.819Z,61.97167969
2022-07-27T06:08:50.299Z,63.23046875
2022-07-27T06:09:49.516Z,62.55859375
2022-07-27T06:11:44.605Z,62.43847656
2022-07-27T06:12:41.017Z,63.39453125
2022-07-27T06:13:41.977Z,63.56835938
2022-07-27T06:14:36.307Z,62.85058594
2022-07-27T06:15:34.682Z,63.48242188
2022-07-27T06:16:33.170Z,62.82128906
2022-07-27T06:17:31.189Z,62.11328125
2022-07-27T06:18:30.668Z,62.40429688
2022-07-27T06:19:25.432Z,63.40136719
2022-07-27T06:19:36.003Z,63.40136719
2022-07-27T06:19:36.041Z,63.40136719
2022-07-27T06:21:23.343Z,62.20214844
2022-07-27T06:22:18.196Z,62.20214844
2022-07-27T06:23:20.586Z,61.34765625
2022-07-27T06:24:13.904Z,61.42578125
2022-07-27T06:25:11.664Z,61.91894531
2022-07-27T06:27:06.675Z,62.22363281
2022-07-27T06:28:08.929Z,62.65234375
2022-07-27T06:29:01.515Z,60.84277344
2022-07-27T06:30:03.980Z,61.75683594
2022-07-27T06:30:56.511Z,62.89355469
2022-07-27T06:31:59.242Z,60.98828125
2022-07-27T06:32:52.102Z,61.18847656
2022-07-27T06:33:54.180Z,60.53125
2022-07-27T06:34:46.912Z,60.45117188
2022-07-27T06:36:41.976Z,60.25878906
2022-07-27T06:37:44.577Z,60.21972656
2022-07-27T06:38:37.739Z,61.0234375
2022-07-27T06:39:40.294Z,60.19433594
2022-07-27T06:41:33.085Z,60.48046875
2022-07-27T06:42:57.303Z,59.41796875
2022-07-27T06:43:37.068Z,59.56835938
2022-07-27T06:44:35.371Z,59.22460938
2022-07-27T06:46:30.540Z,59.85644531
2022-07-27T06:47:30.796Z,58.14355469
2022-07-27T06:48:26.260Z,59.17285156
2022-07-27T06:49:26.675Z,60.01074219
2022-07-27T06:50:21.934Z,60.27441406
2022-07-27T06:51:22.117Z,60.15625
2022-07-27T06:52:17.547Z,59.0234375
2022-07-27T06:53:21.325Z,60.4453125
2022-07-27T06:54:16.034Z,60.36621094
2022-07-27T06:55:11.522Z,60.5234375
2022-07-27T06:57:08.165Z,60.59082031
2022-07-27T06:58:08.303Z,60.25683594
2022-07-27T06:59:04.101Z,59.98828125
2022-07-27T07:00:04.731Z,59.859375
2022-07-27T07:02:04.334Z,58.45117188
2022-07-27T07:02:58.646Z,57.7265625
2022-07-27T07:04:00.811Z,59.08886719
2022-07-27T07:04:54.010Z,59.38964844
2022-07-27T07:06:50.571Z,58.91113281
2022-07-27T07:07:54.141Z,59.43164063
2022-07-27T07:08:47.571Z,60.49414063
2022-07-27T07:09:50.994Z,58.95410156
2022-07-27T07:10:45.326Z,59.1484375
2022-07-27T07:11:48.612Z,59.65820313
2022-07-27T07:12:42.830Z,58.890625
2022-07-27T07:13:45.859Z,59.05957031
2022-07-27T07:14:40.070Z,59.11425781
2022-07-27T07:16:39.204Z,59.04882813
2022-07-27T07:17:36.046Z,59.83789063
2022-07-27T07:18:40.221Z,58.59375
2022-07-27T07:19:34.234Z,57.60253906
2022-07-27T07:21:11.549Z,58.13769531
2022-07-27T07:21:51.997Z,58.03222656
2022-07-27T07:22:49.957Z,58.05078125
2022-07-27T07:23:46.611Z,55.26171875
2022-07-27T07:24:46.324Z,55.52636719
2022-07-27T07:25:42.467Z,54.12890625
2022-07-27T07:26:40.874Z,54.98046875
2022-07-27T07:27:37.366Z,55.97265625
2022-07-27T07:28:36.947Z,56.703125
2022-07-27T07:29:32.363Z,56.51171875
2022-07-27T07:31:26.864Z,55.95996094
2022-07-27T07:32:33.377Z,55.81054688
2022-07-27T07:32:33.928Z,55.81054688
2022-07-27T07:33:23.847Z,57.17675781
2022-07-27T07:34:19.940Z,55.63964844
2022-07-27T07:35:17.965Z,55.88574219
2022-07-27T07:37:10.927Z,55.7734375
2022-07-27T07:38:12.595Z,55.6328125
2022-07-27T07:39:04.405Z,56.54589844
2022-07-27T07:40:41.422Z,56.47949219
2022-07-27T07:41:02.535Z,56.38769531
2022-07-27T07:41:58.674Z,57.6171875
2022-07-27T07:42:58.225Z,57.43847656
2022-07-27T07:43:53.452Z,57.44042969
2022-07-27T07:44:50.752Z,56.99023438
2022-07-27T07:45:51.432Z,56.6796875
2022-07-27T07:46:47.303Z,56.79394531
2022-07-27T07:47:44.034Z,56.60058594
2022-07-27T07:48:50.012Z,56.34765625
2022-07-27T07:50:56.687Z,56.88574219
2022-07-27T07:51:18.257Z,56.89550781
2022-07-27T07:52:18.699Z,57.26269531
2022-07-27T07:53:20.160Z,57.046875
2022-07-27T07:54:16.725Z,56.29394531
2022-07-27T07:55:18.419Z,58.05859375
2022-07-27T07:57:16.401Z,57.62304688
2022-07-27T07:58:13.562Z,59.01269531
2022-07-27T07:59:15.747Z,58.55371094
2022-07-27T08:00:12.512Z,57.98925781
2022-07-27T08:01:13.921Z,57.06640625
2022-07-27T08:02:11.222Z,57.8125
2022-07-27T08:03:11.940Z,57.69921875
2022-07-27T08:04:08.893Z,57.48242188
2022-07-27T08:05:12.445Z,56.81152344
2022-07-27T08:07:07.869Z,56.52246094
2022-07-27T08:08:04.362Z,55.90527344
2022-07-27T08:09:08.494Z,56.51074219
2022-07-27T08:10:02.959Z,56.38574219
2022-07-27T08:11:07.567Z,56.26367188
2022-07-27T08:12:01.848Z,56.54296875
2022-07-27T08:13:05.818Z,57.09863281
2022-07-27T08:13:59.684Z,55.34082031
2022-07-27T08:15:04.058Z,55.67578125
2022-07-27T08:17:04.150Z,55.74316406
2022-07-27T08:17:59.444Z,55.49804688
2022-07-27T08:19:04.196Z,57.27734375
2022-07-27T08:19:59.453Z,55.0625
2022-07-27T08:21:02.092Z,55.24902344
2022-07-27T08:22:01.116Z,56.26953125
2022-07-27T08:23:02.914Z,55.9609375
2022-07-27T08:24:01.246Z,54.23046875
2022-07-27T08:25:02.535Z,54.08300781
2022-07-27T08:27:02.902Z,53.33691406
2022-07-27T08:28:02.038Z,53.75976563
2022-07-27T08:29:11.105Z,53.72949219
2022-07-27T08:29:13.556Z,53.72949219
2022-07-27T08:29:14.277Z,53.72949219
2022-07-27T08:30:53.053Z,53.73535156
2022-07-27T08:31:51.132Z,55.23632813
2022-07-27T08:31:52.736Z,55.23632813
2022-07-27T08:31:52.794Z,55.23632813
2022-07-27T08:32:35.253Z,55.15136719
2022-07-27T08:33:31.231Z,53.8828125
2022-07-27T08:34:32.304Z,51.09082031
2022-07-27T08:36:29.419Z,52.14746094
2022-07-27T08:37:25.766Z,53.05273438
2022-07-27T08:38:26.041Z,50.27148438
2022-07-27T08:39:52.983Z,51.52636719
2022-07-27T08:40:27.815Z,51.52636719
2022-07-27T08:40:36.178Z,51.52636719
2022-07-27T08:40:41.207Z,53.4453125
2022-07-27T08:40:43.491Z,53.4453125
2022-07-27T08:40:45.978Z,53.4453125
2022-07-27T08:41:20.415Z,52.38671875
2022-07-27T08:42:21.497Z,52.61035156
2022-07-27T08:43:24.475Z,52.12988281
2022-07-27T08:43:25.292Z,52.12988281
2022-07-27T08:44:19.257Z,50.89941406
2022-07-27T08:45:16.213Z,50.90429688
2022-07-27T08:47:12.783Z,50.6875
2022-07-27T08:48:13.995Z,52.72558594
2022-07-27T08:49:10.703Z,51.4296875
2022-07-27T08:50:11.100Z,50.46777344
2022-07-27T08:51:08.881Z,51.3359375
2022-07-27T08:52:06.710Z,50.43359375
2022-07-27T08:53:04.595Z,48.60546875
2022-07-27T08:54:02.396Z,48.97167969
2022-07-27T08:55:00.578Z,48.2734375
2022-07-27T08:56:56.399Z,48.37402344
2022-07-27T08:57:57.761Z,48.9375
2022-07-27T08:58:02.762Z,48.9375
2022-07-27T08:58:52.313Z,48.30273438
2022-07-27T08:59:50.743Z,49.09179688
2022-07-27T09:01:45.971Z,49.00195313
2022-07-27T09:02:43.210Z,49.55273438
2022-07-27T09:03:40.573Z,49.79003906
2022-07-27T09:04:38.622Z,50.62792969
2022-07-27T09:05:35.721Z,51.83691406
2022-07-27T09:06:33.178Z,51.17871094
2022-07-27T09:07:31.133Z,48.90332031
2022-07-27T09:08:30.810Z,48.95410156
2022-07-27T09:09:26.091Z,49.80566406
2022-07-27T09:10:23.342Z,49.93066406
2022-07-27T09:12:17.466Z,49.82226563
2022-07-27T09:13:14.566Z,51.33105469
2022-07-27T09:14:12.211Z,50.6484375
2022-07-27T09:15:09.306Z,49.99902344
2022-07-27T09:17:47.317Z,49.97363281
2022-07-27T09:17:47.493Z,49.97363281
2022-07-27T09:18:03.870Z,50.421875
2022-07-27T09:19:01.488Z,50.75585938
2022-07-27T09:19:59.324Z,48.91601563
2022-07-27T09:20:56.739Z,48.8671875
2022-07-27T09:21:54.284Z,48.62695313
2022-07-27T09:22:51.673Z,48.97363281
2022-07-27T09:23:49.190Z,49.18261719
2022-07-27T09:24:47.933Z,50.28808594
2022-07-27T09:26:42.806Z,48.95117188
2022-07-27T09:27:40.242Z,49.61425781
2022-07-27T09:28:35.403Z,50.24023438
2022-07-27T09:29:35.577Z,50.12304688
2022-07-27T09:30:31.107Z,50.234375
2022-07-27T09:31:30.781Z,50.39355469
2022-07-27T09:32:26.062Z,50.47070313
2022-07-27T09:33:27.658Z,51.21679688
2022-07-27T09:33:33.811Z,51.21679688
2022-07-27T09:34:22.169Z,51.82714844
2022-07-27T09:35:19.985Z,50.90234375
2022-07-27T09:37:14.702Z,51.40820313
2022-07-27T09:38:11.131Z,50.2109375
2022-07-27T09:39:08.218Z,51.36914063
2022-07-27T09:40:07.564Z,50.38574219
2022-07-27T09:41:02.252Z,51.00878906
2022-07-27T09:42:02.087Z,51.43847656
2022-07-27T09:43:09.212Z,52.0859375
2022-07-27T09:43:23.546Z,52.0859375
2022-07-27T09:43:23.845Z,52.0859375
2022-07-27T09:44:30.543Z,52.33984375
2022-07-27T09:44:54.789Z,53.07324219
2022-07-27T09:46:49.668Z,52.62890625
2022-07-27T09:47:49.205Z,52.61035156
2022-07-27T09:48:44.520Z,52.98535156
2022-07-27T09:49:45.813Z,53.60449219
2022-07-27T09:51:58.365Z,53.73242188
2022-07-27T09:52:57.103Z,53.68847656
2022-07-27T09:53:42.765Z,53.30859375
2022-07-27T09:53:43.717Z,53.30859375
2022-07-27T09:53:44.300Z,53.30859375
2022-07-27T09:54:33.303Z,52.75
2022-07-27T09:55:27.661Z,53.56738281
2022-07-27T09:56:26.921Z,53.15820313
2022-07-27T09:57:22.170Z,53.63671875
2022-07-27T09:58:20.933Z,53.64550781
2022-07-27T09:59:15.400Z,52.83398438
2022-07-27T10:00:14.251Z,52.96777344
2022-07-27T10:02:07.384Z,53.30957031
2022-07-27T10:03:01.827Z,53.91992188
2022-07-27T10:04:03.280Z,53.73925781
2022-07-27T10:04:55.246Z,51.66503906
2022-07-27T10:05:54.242Z,52.40136719
2022-07-27T10:07:02.432Z,52.55371094
2022-07-27T10:07:02.857Z,52.55371094
2022-07-27T10:07:03.937Z,52.55371094
2022-07-27T10:07:48.581Z,52.25585938
2022-07-27T10:08:43.059Z,50.41210938
2022-07-27T10:09:42.678Z,52.30664063
2022-07-27T10:11:36.734Z,51.04199219
2022-07-27T10:12:31.913Z,51.29492188
2022-07-27T10:13:30.579Z,51.59667969
2022-07-27T10:14:25.902Z,51.34375
2022-07-27T10:15:24.993Z,51.78125
2022-07-27T10:16:19.499Z,51.39550781
2022-07-27T10:17:16.661Z,49.98730469
2022-07-27T10:18:15.522Z,49.64160156
2022-07-27T10:19:10.474Z,49.71875
2022-07-27T10:20:07.675Z,50.58886719
2022-07-27T10:21:06.557Z,49.49121094
2022-07-27T10:22:00.919Z,50.24414063
2022-07-27T10:23:02.825Z,50.07421875
2022-07-27T10:23:55.255Z,50.93945313
2022-07-27T10:24:56.986Z,50.42382813
2022-07-27T10:26:46.536Z,50.03710938
2022-07-27T10:27:45.537Z,50.10546875
2022-07-27T10:29:22.838Z,51.55175781
2022-07-27T10:31:14.924Z,50.71679688
2022-07-27T10:31:40.121Z,49.33691406
2022-07-27T10:32:37.413Z,47.609375
2022-07-27T10:33:36.806Z,48.09472656
2022-07-27T10:34:31.192Z,48.33203125
2022-07-27T10:35:31.460Z,48.92871094
2022-07-27T10:36:38.878Z,48.48632813
2022-07-27T10:37:35.717Z,47.61328125
2022-07-27T10:38:29.925Z,47.12695313
2022-07-27T10:39:32.172Z,47.22753906
2022-07-27T10:40:23.966Z,48.28222656
2022-07-27T10:42:17.255Z,47.85742188
2022-07-27T10:43:12.777Z,48.99707031
2022-07-27T10:44:14.677Z,47.84667969
2022-07-27T10:45:05.528Z,48.16699219
2022-07-27T10:46:04.138Z,48.56835938
2022-07-27T10:46:58.348Z,49.60546875
2022-07-27T10:47:53.807Z,47.95214844
2022-07-27T10:48:52.263Z,49.40234375
2022-07-27T10:49:46.102Z,49.9296875
2022-07-27T10:51:41.480Z,51.34375
2022-07-27T10:52:35.283Z,49.3359375
2022-07-27T10:53:36.217Z,49.86230469
2022-07-27T10:53:49.182Z,49.86230469
2022-07-27T10:54:10.526Z,49.86230469
2022-07-27T10:54:31.050Z,49.78320313
2022-07-27T10:55:25.225Z,48.56347656
2022-07-27T10:57:21.281Z,48.75390625
2022-07-27T10:58:20.267Z,49.29785156
2022-07-27T10:59:14.668Z,49.32421875
2022-07-27T11:00:13.545Z,49.00390625
2022-07-27T11:00:19.643Z,49.00390625
2022-07-27T11:01:07.132Z,48.62011719
2022-07-27T11:02:06.013Z,47.83300781
2022-07-27T11:03:01.622Z,48.08300781
2022-07-27T11:03:57.986Z,49.30761719
2022-07-27T11:04:56.398Z,49.77832031
2022-07-27T11:07:45.194Z,47.65429688
2022-07-27T11:08:13.495Z,47.65429688
2022-07-27T11:08:34.523Z,47.65429688
2022-07-27T11:08:47.560Z,48.28808594
2022-07-27T11:08:56.141Z,48.28808594
2022-07-27T11:09:21.374Z,48.28808594
2022-07-27T11:10:33.586Z,47.33984375
2022-07-27T11:12:11.007Z,47.47265625